sensor_id;sensor_type;location;lat;lon;timestamp;P1;durP1;ratioP1;P2;durP2;ratioP2
52674;SDS011;38569;52.722;6.440;2023-01-10T00:00:24;20.70;;;4.40;;
52674;SDS011;38569;52.722;6.440;2023-01-10T00:02:53;26.73;;;5.45;;
52674;SDS011;38569;52.722;6.440;2023-01-10T00:05:18;23.73;;;5.07;;
52674;SDS011;38569;52.722;6.440;2023-01-10T00:07:45;22.63;;;4.32;;
52674;SDS011;38569;52.722;6.440;2023-01-10T00:10:11;30.15;;;4.82;;
52674;SDS011;38569;52.722;6.440;2023-01-10T00:12:36;26.80;;;5.55;;
52674;SDS011;38569;52.722;6.440;2023-01-10T00:15:20;26.67;;;4.80;;
52674;SDS011;38569;52.722;6.440;2023-01-10T00:17:46;26.73;;;6.20;;
52674;SDS011;38569;52.722;6.440;2023-01-10T00:20:12;19.70;;;4.03;;
52674;SDS011;38569;52.722;6.440;2023-01-10T00:22:38;26.83;;;5.10;;
52674;SDS011;38569;52.722;6.440;2023-01-10T00:25:04;21.30;;;4.32;;
52674;SDS011;38569;52.722;6.440;2023-01-10T00:27:30;19.00;;;4.88;;
52674;SDS011;38569;52.722;6.440;2023-01-10T00:29:56;20.98;;;4.63;;
52674;SDS011;38569;52.722;6.440;2023-01-10T00:32:25;31.05;;;6.95;;
52674;SDS011;38569;52.722;6.440;2023-01-10T00:34:51;25.23;;;4.53;;
52674;SDS011;38569;52.722;6.440;2023-01-10T00:37:17;30.30;;;4.93;;
52674;SDS011;38569;52.722;6.440;2023-01-10T00:39:43;23.85;;;5.30;;
52674;SDS011;38569;52.722;6.440;2023-01-10T00:42:09;21.73;;;4.40;;
52674;SDS011;38569;52.722;6.440;2023-01-10T00:44:54;27.60;;;4.75;;
52674;SDS011;38569;52.722;6.440;2023-01-10T00:47:20;29.92;;;4.90;;
52674;SDS011;38569;52.722;6.440;2023-01-10T00:49:45;19.85;;;4.30;;
52674;SDS011;38569;52.722;6.440;2023-01-10T00:52:11;24.83;;;5.22;;
52674;SDS011;38569;52.722;6.440;2023-01-10T00:54:37;20.17;;;4.85;;
52674;SDS011;38569;52.722;6.440;2023-01-10T00:57:02;22.35;;;4.40;;
52674;SDS011;38569;52.722;6.440;2023-01-10T00:59:28;27.52;;;5.88;;
52674;SDS011;38569;52.722;6.440;2023-01-10T01:01:54;18.23;;;3.95;;
52674;SDS011;38569;52.722;6.440;2023-01-10T01:04:20;20.65;;;3.65;;
52674;SDS011;38569;52.722;6.440;2023-01-10T01:06:46;22.77;;;4.85;;
52674;SDS011;38569;52.722;6.440;2023-01-10T01:09:13;16.00;;;4.25;;
52674;SDS011;38569;52.722;6.440;2023-01-10T01:11:39;16.58;;;3.78;;
52674;SDS011;38569;52.722;6.440;2023-01-10T01:14:05;23.75;;;4.65;;
52674;SDS011;38569;52.722;6.440;2023-01-10T01:16:31;20.65;;;4.28;;
52674;SDS011;38569;52.722;6.440;2023-01-10T01:18:56;23.00;;;4.18;;
52674;SDS011;38569;52.722;6.440;2023-01-10T01:21:22;13.73;;;3.75;;
52674;SDS011;38569;52.722;6.440;2023-01-10T01:23:55;26.67;;;4.10;;
52674;SDS011;38569;52.722;6.440;2023-01-10T01:26:21;23.38;;;5.78;;
52674;SDS011;38569;52.722;6.440;2023-01-10T01:28:48;16.92;;;4.05;;
52674;SDS011;38569;52.722;6.440;2023-01-10T01:31:14;19.10;;;4.20;;
52674;SDS011;38569;52.722;6.440;2023-01-10T01:33:40;17.38;;;3.92;;
52674;SDS011;38569;52.722;6.440;2023-01-10T01:36:09;21.58;;;4.32;;
52674;SDS011;38569;52.722;6.440;2023-01-10T01:38:38;15.25;;;3.78;;
52674;SDS011;38569;52.722;6.440;2023-01-10T01:41:05;20.02;;;4.07;;
52674;SDS011;38569;52.722;6.440;2023-01-10T01:44:00;24.83;;;4.57;;
52674;SDS011;38569;52.722;6.440;2023-01-10T01:46:26;26.05;;;3.72;;
52674;SDS011;38569;52.722;6.440;2023-01-10T01:48:53;18.08;;;3.35;;
52674;SDS011;38569;52.722;6.440;2023-01-10T01:51:19;18.15;;;3.70;;
52674;SDS011;38569;52.722;6.440;2023-01-10T01:53:54;23.73;;;3.97;;
52674;SDS011;38569;52.722;6.440;2023-01-10T01:58:54;12.52;;;3.97;;
52674;SDS011;38569;52.722;6.440;2023-01-10T02:01:26;28.48;;;5.20;;
52674;SDS011;38569;52.722;6.440;2023-01-10T02:03:55;17.65;;;4.53;;
52674;SDS011;38569;52.722;6.440;2023-01-10T02:06:32;20.90;;;4.30;;
52674;SDS011;38569;52.722;6.440;2023-01-10T02:09:01;23.98;;;3.67;;
52674;SDS011;38569;52.722;6.440;2023-01-10T02:11:32;17.17;;;4.43;;
52674;SDS011;38569;52.722;6.440;2023-01-10T02:13:57;22.48;;;3.83;;
52674;SDS011;38569;52.722;6.440;2023-01-10T02:16:24;17.33;;;4.13;;
52674;SDS011;38569;52.722;6.440;2023-01-10T02:18:49;25.63;;;4.43;;
52674;SDS011;38569;52.722;6.440;2023-01-10T02:21:22;15.57;;;4.47;;
52674;SDS011;38569;52.722;6.440;2023-01-10T02:24:19;14.45;;;3.80;;
52674;SDS011;38569;52.722;6.440;2023-01-10T02:27:18;20.33;;;4.15;;
52674;SDS011;38569;52.722;6.440;2023-01-10T02:30:29;19.33;;;3.75;;
52674;SDS011;38569;52.722;6.440;2023-01-10T02:33:22;21.17;;;4.13;;
52674;SDS011;38569;52.722;6.440;2023-01-10T02:35:58;18.95;;;4.13;;
52674;SDS011;38569;52.722;6.440;2023-01-10T02:38:39;20.08;;;4.18;;
52674;SDS011;38569;52.722;6.440;2023-01-10T02:41:38;20.73;;;4.40;;
52674;SDS011;38569;52.722;6.440;2023-01-10T02:46:38;25.95;;;4.03;;
52674;SDS011;38569;52.722;6.440;2023-01-10T02:49:05;18.58;;;3.90;;
52674;SDS011;38569;52.722;6.440;2023-01-10T02:51:31;18.17;;;3.70;;
52674;SDS011;38569;52.722;6.440;2023-01-10T02:54:01;16.70;;;3.40;;
52674;SDS011;38569;52.722;6.440;2023-01-10T02:56:34;17.52;;;3.70;;
52674;SDS011;38569;52.722;6.440;2023-01-10T03:07:55;18.38;;;4.07;;
52674;SDS011;38569;52.722;6.440;2023-01-10T03:10:42;22.10;;;4.18;;
52674;SDS011;38569;52.722;6.440;2023-01-10T03:13:18;15.63;;;3.65;;
52674;SDS011;38569;52.722;6.440;2023-01-10T03:16:07;16.50;;;3.40;;
52674;SDS011;38569;52.722;6.440;2023-01-10T03:18:44;20.33;;;3.92;;
52674;SDS011;38569;52.722;6.440;2023-01-10T03:21:18;16.00;;;3.20;;
52674;SDS011;38569;52.722;6.440;2023-01-10T03:23:46;30.20;;;4.30;;
52674;SDS011;38569;52.722;6.440;2023-01-10T03:26:15;15.32;;;3.42;;
52674;SDS011;38569;52.722;6.440;2023-01-10T03:28:50;13.48;;;3.90;;
52674;SDS011;38569;52.722;6.440;2023-01-10T03:31:37;18.63;;;3.63;;
52674;SDS011;38569;52.722;6.440;2023-01-10T03:34:09;23.00;;;4.13;;
52674;SDS011;38569;52.722;6.440;2023-01-10T03:36:38;18.45;;;4.18;;
52674;SDS011;38569;52.722;6.440;2023-01-10T03:47:41;19.83;;;4.03;;
52674;SDS011;38569;52.722;6.440;2023-01-10T03:50:14;18.63;;;4.13;;
52674;SDS011;38569;52.722;6.440;2023-01-10T03:52:47;19.52;;;4.25;;
52674;SDS011;38569;52.722;6.440;2023-01-10T03:55:14;27.27;;;4.88;;
52674;SDS011;38569;52.722;6.440;2023-01-10T03:57:43;19.85;;;4.40;;
52674;SDS011;38569;52.722;6.440;2023-01-10T04:00:10;23.85;;;4.60;;
52674;SDS011;38569;52.722;6.440;2023-01-10T04:02:37;25.30;;;4.75;;
52674;SDS011;38569;52.722;6.440;2023-01-10T04:05:03;21.38;;;4.57;;
52674;SDS011;38569;52.722;6.440;2023-01-10T04:07:29;24.20;;;4.80;;
52674;SDS011;38569;52.722;6.440;2023-01-10T04:09:55;25.50;;;4.80;;
52674;SDS011;38569;52.722;6.440;2023-01-10T04:12:21;32.08;;;4.63;;
52674;SDS011;38569;52.722;6.440;2023-01-10T04:14:47;24.27;;;4.07;;
52674;SDS011;38569;52.722;6.440;2023-01-10T04:17:13;25.88;;;4.28;;
52674;SDS011;38569;52.722;6.440;2023-01-10T04:19:40;21.88;;;3.88;;
52674;SDS011;38569;52.722;6.440;2023-01-10T04:22:06;18.02;;;4.13;;
52674;SDS011;38569;52.722;6.440;2023-01-10T04:24:32;22.02;;;4.28;;
52674;SDS011;38569;52.722;6.440;2023-01-10T04:26:58;30.17;;;5.47;;
52674;SDS011;38569;52.722;6.440;2023-01-10T04:29:25;22.02;;;4.45;;
52674;SDS011;38569;52.722;6.440;2023-01-10T04:31:51;29.95;;;5.30;;
52674;SDS011;38569;52.722;6.440;2023-01-10T04:34:17;30.98;;;4.90;;
52674;SDS011;38569;52.722;6.440;2023-01-10T04:36:44;25.75;;;4.85;;
52674;SDS011;38569;52.722;6.440;2023-01-10T04:39:11;29.63;;;5.45;;
52674;SDS011;38569;52.722;6.440;2023-01-10T04:41:37;24.58;;;4.97;;
52674;SDS011;38569;52.722;6.440;2023-01-10T04:44:03;22.00;;;5.13;;
52674;SDS011;38569;52.722;6.440;2023-01-10T04:46:29;19.40;;;4.28;;
52674;SDS011;38569;52.722;6.440;2023-01-10T04:48:55;25.55;;;4.13;;
52674;SDS011;38569;52.722;6.440;2023-01-10T04:51:23;20.10;;;5.35;;
52674;SDS011;38569;52.722;6.440;2023-01-10T04:53:49;27.00;;;5.20;;
52674;SDS011;38569;52.722;6.440;2023-01-10T04:56:16;25.70;;;4.40;;
52674;SDS011;38569;52.722;6.440;2023-01-10T04:58:43;23.27;;;5.03;;
52674;SDS011;38569;52.722;6.440;2023-01-10T05:01:10;27.77;;;4.60;;
52674;SDS011;38569;52.722;6.440;2023-01-10T05:03:50;33.72;;;5.57;;
52674;SDS011;38569;52.722;6.440;2023-01-10T05:06:20;27.42;;;4.53;;
52674;SDS011;38569;52.722;6.440;2023-01-10T05:08:46;25.55;;;4.13;;
52674;SDS011;38569;52.722;6.440;2023-01-10T05:11:12;28.48;;;4.78;;
52674;SDS011;38569;52.722;6.440;2023-01-10T05:13:39;23.83;;;4.25;;
52674;SDS011;38569;52.722;6.440;2023-01-10T05:16:05;17.95;;;5.03;;
52674;SDS011;38569;52.722;6.440;2023-01-10T05:18:31;22.48;;;5.03;;
52674;SDS011;38569;52.722;6.440;2023-01-10T05:21:01;24.85;;;4.13;;
52674;SDS011;38569;52.722;6.440;2023-01-10T05:23:28;31.27;;;4.65;;
52674;SDS011;38569;52.722;6.440;2023-01-10T05:25:53;21.15;;;5.07;;
52674;SDS011;38569;52.722;6.440;2023-01-10T05:28:19;22.95;;;4.32;;
52674;SDS011;38569;52.722;6.440;2023-01-10T05:30:45;27.23;;;4.97;;
52674;SDS011;38569;52.722;6.440;2023-01-10T05:33:11;20.05;;;5.18;;
52674;SDS011;38569;52.722;6.440;2023-01-10T05:35:36;20.67;;;4.60;;
52674;SDS011;38569;52.722;6.440;2023-01-10T05:38:02;22.10;;;4.70;;
52674;SDS011;38569;52.722;6.440;2023-01-10T05:40:28;30.35;;;5.57;;
52674;SDS011;38569;52.722;6.440;2023-01-10T05:42:54;20.58;;;4.75;;
52674;SDS011;38569;52.722;6.440;2023-01-10T05:45:19;31.70;;;4.32;;
52674;SDS011;38569;52.722;6.440;2023-01-10T05:47:45;22.00;;;4.25;;
52674;SDS011;38569;52.722;6.440;2023-01-10T05:50:11;25.20;;;5.20;;
52674;SDS011;38569;52.722;6.440;2023-01-10T05:52:37;27.35;;;5.38;;
52674;SDS011;38569;52.722;6.440;2023-01-10T05:55:02;34.15;;;7.18;;
52674;SDS011;38569;52.722;6.440;2023-01-10T05:57:28;26.33;;;5.28;;
52674;SDS011;38569;52.722;6.440;2023-01-10T05:59:54;31.58;;;5.13;;
52674;SDS011;38569;52.722;6.440;2023-01-10T06:02:20;22.30;;;4.65;;
52674;SDS011;38569;52.722;6.440;2023-01-10T06:04:46;19.65;;;4.40;;
52674;SDS011;38569;52.722;6.440;2023-01-10T06:07:12;25.70;;;4.88;;
52674;SDS011;38569;52.722;6.440;2023-01-10T06:09:37;17.33;;;5.43;;
52674;SDS011;38569;52.722;6.440;2023-01-10T06:12:03;25.98;;;6.90;;
52674;SDS011;38569;52.722;6.440;2023-01-10T06:14:29;25.13;;;5.25;;
52674;SDS011;38569;52.722;6.440;2023-01-10T06:16:55;19.05;;;4.28;;
52674;SDS011;38569;52.722;6.440;2023-01-10T06:19:21;23.48;;;4.78;;
52674;SDS011;38569;52.722;6.440;2023-01-10T06:21:46;26.58;;;4.88;;
52674;SDS011;38569;52.722;6.440;2023-01-10T06:24:12;25.25;;;5.15;;
52674;SDS011;38569;52.722;6.440;2023-01-10T06:26:38;15.38;;;5.47;;
52674;SDS011;38569;52.722;6.440;2023-01-10T06:29:03;20.33;;;5.68;;
52674;SDS011;38569;52.722;6.440;2023-01-10T06:31:29;30.17;;;5.57;;
52674;SDS011;38569;52.722;6.440;2023-01-10T06:33:55;40.45;;;6.13;;
52674;SDS011;38569;52.722;6.440;2023-01-10T06:36:20;26.13;;;5.25;;
52674;SDS011;38569;52.722;6.440;2023-01-10T06:38:46;26.00;;;6.68;;
52674;SDS011;38569;52.722;6.440;2023-01-10T06:41:12;18.00;;;4.90;;
52674;SDS011;38569;52.722;6.440;2023-01-10T06:43:41;31.20;;;5.80;;
52674;SDS011;38569;52.722;6.440;2023-01-10T06:46:12;21.77;;;5.20;;
52674;SDS011;38569;52.722;6.440;2023-01-10T06:48:40;23.02;;;4.95;;
52674;SDS011;38569;52.722;6.440;2023-01-10T06:51:09;23.38;;;4.82;;
52674;SDS011;38569;52.722;6.440;2023-01-10T06:53:35;25.70;;;4.90;;
52674;SDS011;38569;52.722;6.440;2023-01-10T06:56:01;30.85;;;5.85;;
52674;SDS011;38569;52.722;6.440;2023-01-10T06:58:27;25.38;;;5.82;;
52674;SDS011;38569;52.722;6.440;2023-01-10T07:00:53;42.45;;;6.43;;
52674;SDS011;38569;52.722;6.440;2023-01-10T07:03:19;26.35;;;4.97;;
52674;SDS011;38569;52.722;6.440;2023-01-10T07:05:45;19.33;;;4.68;;
52674;SDS011;38569;52.722;6.440;2023-01-10T07:08:10;24.02;;;5.60;;
52674;SDS011;38569;52.722;6.440;2023-01-10T07:10:38;32.78;;;5.88;;
52674;SDS011;38569;52.722;6.440;2023-01-10T07:13:05;27.30;;;5.78;;
52674;SDS011;38569;52.722;6.440;2023-01-10T07:15:31;23.85;;;5.70;;
52674;SDS011;38569;52.722;6.440;2023-01-10T07:17:57;32.00;;;6.35;;
52674;SDS011;38569;52.722;6.440;2023-01-10T07:20:23;30.35;;;6.53;;
52674;SDS011;38569;52.722;6.440;2023-01-10T07:22:53;45.13;;;6.55;;
52674;SDS011;38569;52.722;6.440;2023-01-10T07:25:20;28.40;;;5.72;;
52674;SDS011;38569;52.722;6.440;2023-01-10T07:27:46;21.52;;;6.05;;
52674;SDS011;38569;52.722;6.440;2023-01-10T07:30:12;28.38;;;5.93;;
52674;SDS011;38569;52.722;6.440;2023-01-10T07:32:37;28.10;;;6.05;;
52674;SDS011;38569;52.722;6.440;2023-01-10T07:35:03;28.77;;;5.57;;
52674;SDS011;38569;52.722;6.440;2023-01-10T07:37:29;32.55;;;6.53;;
52674;SDS011;38569;52.722;6.440;2023-01-10T07:39:55;34.85;;;7.20;;
52674;SDS011;38569;52.722;6.440;2023-01-10T07:42:21;28.45;;;5.65;;
52674;SDS011;38569;52.722;6.440;2023-01-10T07:44:46;35.95;;;6.15;;
52674;SDS011;38569;52.722;6.440;2023-01-10T07:47:12;28.30;;;6.00;;
52674;SDS011;38569;52.722;6.440;2023-01-10T07:49:38;35.28;;;5.88;;
52674;SDS011;38569;52.722;6.440;2023-01-10T07:52:03;31.67;;;9.27;;
52674;SDS011;38569;52.722;6.440;2023-01-10T07:54:31;34.38;;;7.10;;
52674;SDS011;38569;52.722;6.440;2023-01-10T07:56:57;25.20;;;6.20;;
52674;SDS011;38569;52.722;6.440;2023-01-10T07:59:23;29.48;;;6.65;;
52674;SDS011;38569;52.722;6.440;2023-01-10T08:01:48;29.52;;;5.35;;
52674;SDS011;38569;52.722;6.440;2023-01-10T08:04:14;24.27;;;6.50;;
52674;SDS011;38569;52.722;6.440;2023-01-10T08:06:40;28.95;;;6.32;;
52674;SDS011;38569;52.722;6.440;2023-01-10T08:09:05;30.52;;;6.20;;
52674;SDS011;38569;52.722;6.440;2023-01-10T08:11:31;34.95;;;7.03;;
52674;SDS011;38569;52.722;6.440;2023-01-10T08:13:57;23.92;;;5.65;;
52674;SDS011;38569;52.722;6.440;2023-01-10T08:16:22;25.75;;;5.45;;
52674;SDS011;38569;52.722;6.440;2023-01-10T08:18:48;21.70;;;6.03;;
52674;SDS011;38569;52.722;6.440;2023-01-10T08:21:14;32.97;;;6.25;;
52674;SDS011;38569;52.722;6.440;2023-01-10T08:23:40;28.10;;;6.72;;
52674;SDS011;38569;52.722;6.440;2023-01-10T08:26:05;37.80;;;6.00;;
52674;SDS011;38569;52.722;6.440;2023-01-10T08:28:31;28.27;;;5.85;;
52674;SDS011;38569;52.722;6.440;2023-01-10T08:30:57;28.33;;;6.88;;
52674;SDS011;38569;52.722;6.440;2023-01-10T08:33:23;29.30;;;5.90;;
52674;SDS011;38569;52.722;6.440;2023-01-10T08:35:50;28.55;;;6.18;;
52674;SDS011;38569;52.722;6.440;2023-01-10T08:38:15;25.88;;;5.95;;
52674;SDS011;38569;52.722;6.440;2023-01-10T08:40:41;26.85;;;7.03;;
52674;SDS011;38569;52.722;6.440;2023-01-10T08:43:09;23.73;;;5.53;;
52674;SDS011;38569;52.722;6.440;2023-01-10T08:45:36;24.58;;;6.38;;
52674;SDS011;38569;52.722;6.440;2023-01-10T08:48:03;25.77;;;5.85;;
52674;SDS011;38569;52.722;6.440;2023-01-10T08:50:29;31.42;;;7.93;;
52674;SDS011;38569;52.722;6.440;2023-01-10T08:52:58;34.55;;;7.38;;
52674;SDS011;38569;52.722;6.440;2023-01-10T08:55:25;20.73;;;5.35;;
52674;SDS011;38569;52.722;6.440;2023-01-10T08:57:51;37.05;;;5.82;;
52674;SDS011;38569;52.722;6.440;2023-01-10T09:00:17;34.75;;;7.43;;
52674;SDS011;38569;52.722;6.440;2023-01-10T09:02:43;25.17;;;6.10;;
52674;SDS011;38569;52.722;6.440;2023-01-10T09:05:09;31.17;;;6.10;;
52674;SDS011;38569;52.722;6.440;2023-01-10T09:07:35;29.95;;;5.05;;
52674;SDS011;38569;52.722;6.440;2023-01-10T09:10:01;28.77;;;6.03;;
52674;SDS011;38569;52.722;6.440;2023-01-10T09:12:27;37.45;;;6.28;;
52674;SDS011;38569;52.722;6.440;2023-01-10T09:15:12;26.00;;;5.25;;
52674;SDS011;38569;52.722;6.440;2023-01-10T09:17:38;29.92;;;7.18;;
52674;SDS011;38569;52.722;6.440;2023-01-10T09:20:04;27.35;;;6.22;;
52674;SDS011;38569;52.722;6.440;2023-01-10T09:22:34;26.83;;;6.15;;
52674;SDS011;38569;52.722;6.440;2023-01-10T09:25:01;28.35;;;6.70;;
52674;SDS011;38569;52.722;6.440;2023-01-10T09:27:27;27.95;;;5.85;;
52674;SDS011;38569;52.722;6.440;2023-01-10T09:29:53;34.88;;;6.80;;
52674;SDS011;38569;52.722;6.440;2023-01-10T09:32:18;28.88;;;5.90;;
52674;SDS011;38569;52.722;6.440;2023-01-10T09:34:44;28.23;;;6.82;;
52674;SDS011;38569;52.722;6.440;2023-01-10T09:37:10;29.60;;;6.95;;
52674;SDS011;38569;52.722;6.440;2023-01-10T09:39:35;29.55;;;7.65;;
52674;SDS011;38569;52.722;6.440;2023-01-10T09:47:23;29.35;;;6.68;;
52674;SDS011;38569;52.722;6.440;2023-01-10T09:52:57;31.73;;;7.63;;
52674;SDS011;38569;52.722;6.440;2023-01-10T09:58:03;26.73;;;8.68;;
52674;SDS011;38569;52.722;6.440;2023-01-10T10:00:45;32.92;;;8.93;;
52674;SDS011;38569;52.722;6.440;2023-01-10T10:06:10;30.63;;;8.30;;
52674;SDS011;38569;52.722;6.440;2023-01-10T10:08:42;40.22;;;10.63;;
52674;SDS011;38569;52.722;6.440;2023-01-10T10:11:19;27.63;;;9.20;;
52674;SDS011;38569;52.722;6.440;2023-01-10T10:19:21;27.33;;;9.48;;
52674;SDS011;38569;52.722;6.440;2023-01-10T10:24:43;41.42;;;10.15;;
52674;SDS011;38569;52.722;6.440;2023-01-10T10:27:23;30.13;;;9.45;;
52674;SDS011;38569;52.722;6.440;2023-01-10T10:35:31;37.60;;;10.48;;
52674;SDS011;38569;52.722;6.440;2023-01-10T10:38:13;29.83;;;9.93;;
52674;SDS011;38569;52.722;6.440;2023-01-10T10:40:46;25.77;;;8.55;;
52674;SDS011;38569;52.722;6.440;2023-01-10T10:43:18;28.13;;;9.02;;
52674;SDS011;38569;52.722;6.440;2023-01-10T10:45:51;30.13;;;8.75;;
52674;SDS011;38569;52.722;6.440;2023-01-10T10:54:09;30.92;;;9.68;;
52674;SDS011;38569;52.722;6.440;2023-01-10T10:56:37;34.22;;;8.48;;
52674;SDS011;38569;52.722;6.440;2023-01-10T10:59:03;26.13;;;8.57;;
52674;SDS011;38569;52.722;6.440;2023-01-10T11:01:29;29.40;;;8.55;;
52674;SDS011;38569;52.722;6.440;2023-01-10T11:03:59;26.00;;;6.93;;
52674;SDS011;38569;52.722;6.440;2023-01-10T11:06:28;32.17;;;7.63;;
52674;SDS011;38569;52.722;6.440;2023-01-10T11:08:56;24.70;;;7.15;;
52674;SDS011;38569;52.722;6.440;2023-01-10T11:11:29;30.83;;;7.82;;
52674;SDS011;38569;52.722;6.440;2023-01-10T11:16:41;39.13;;;7.57;;
52674;SDS011;38569;52.722;6.440;2023-01-10T11:19:22;24.92;;;7.13;;
52674;SDS011;38569;52.722;6.440;2023-01-10T11:26:53;25.65;;;6.97;;
52674;SDS011;38569;52.722;6.440;2023-01-10T11:29:36;23.33;;;6.60;;
52674;SDS011;38569;52.722;6.440;2023-01-10T11:32:11;29.27;;;6.38;;
52674;SDS011;38569;52.722;6.440;2023-01-10T11:34:40;32.28;;;7.57;;
52674;SDS011;38569;52.722;6.440;2023-01-10T11:39:41;28.92;;;7.15;;
52674;SDS011;38569;52.722;6.440;2023-01-10T11:44:48;31.55;;;6.32;;
52674;SDS011;38569;52.722;6.440;2023-01-10T11:47:14;22.77;;;5.78;;
52674;SDS011;38569;52.722;6.440;2023-01-10T11:49:44;33.03;;;7.65;;
52674;SDS011;38569;52.722;6.440;2023-01-10T11:54:44;38.88;;;8.65;;
52674;SDS011;38569;52.722;6.440;2023-01-10T11:57:17;35.35;;;6.55;;
52674;SDS011;38569;52.722;6.440;2023-01-10T11:59:50;30.15;;;6.63;;
52674;SDS011;38569;52.722;6.440;2023-01-10T12:02:23;32.83;;;6.53;;
52674;SDS011;38569;52.722;6.440;2023-01-10T12:04:54;33.67;;;6.80;;
52674;SDS011;38569;52.722;6.440;2023-01-10T12:07:23;26.52;;;5.72;;
52674;SDS011;38569;52.722;6.440;2023-01-10T12:09:56;27.55;;;6.20;;
52674;SDS011;38569;52.722;6.440;2023-01-10T12:12:29;29.20;;;7.75;;
52674;SDS011;38569;52.722;6.440;2023-01-10T12:14:58;28.60;;;6.15;;
52674;SDS011;38569;52.722;6.440;2023-01-10T12:17:44;31.45;;;7.35;;
52674;SDS011;38569;52.722;6.440;2023-01-10T12:20:11;24.90;;;6.97;;
52674;SDS011;38569;52.722;6.440;2023-01-10T12:22:40;35.63;;;7.03;;
52674;SDS011;38569;52.722;6.440;2023-01-10T12:25:21;32.03;;;8.73;;
52674;SDS011;38569;52.722;6.440;2023-01-10T12:28:00;29.27;;;7.88;;
52674;SDS011;38569;52.722;6.440;2023-01-10T12:30:31;28.98;;;6.82;;
52674;SDS011;38569;52.722;6.440;2023-01-10T12:33:01;34.58;;;7.20;;
52674;SDS011;38569;52.722;6.440;2023-01-10T12:35:37;25.60;;;7.97;;
52674;SDS011;38569;52.722;6.440;2023-01-10T12:41:14;29.35;;;6.60;;
52674;SDS011;38569;52.722;6.440;2023-01-10T12:44:11;41.90;;;8.70;;
52674;SDS011;38569;52.722;6.440;2023-01-10T12:46:50;30.15;;;7.93;;
52674;SDS011;38569;52.722;6.440;2023-01-10T12:52:19;29.40;;;7.28;;
52674;SDS011;38569;52.722;6.440;2023-01-10T12:55:20;25.60;;;6.20;;
52674;SDS011;38569;52.722;6.440;2023-01-10T12:57:50;32.55;;;7.20;;
52674;SDS011;38569;52.722;6.440;2023-01-10T13:00:21;24.58;;;6.63;;
52674;SDS011;38569;52.722;6.440;2023-01-10T13:02:54;29.80;;;7.95;;
52674;SDS011;38569;52.722;6.440;2023-01-10T13:05:24;31.23;;;6.85;;
52674;SDS011;38569;52.722;6.440;2023-01-10T13:07:53;26.90;;;6.22;;
52674;SDS011;38569;52.722;6.440;2023-01-10T13:10:24;27.10;;;5.80;;
52674;SDS011;38569;52.722;6.440;2023-01-10T13:12:54;24.83;;;6.55;;
52674;SDS011;38569;52.722;6.440;2023-01-10T13:18:12;33.35;;;6.93;;
52674;SDS011;38569;52.722;6.440;2023-01-10T13:20:40;22.17;;;5.97;;
52674;SDS011;38569;52.722;6.440;2023-01-10T13:23:14;26.10;;;6.13;;
52674;SDS011;38569;52.722;6.440;2023-01-10T13:25:57;31.98;;;5.78;;
52674;SDS011;38569;52.722;6.440;2023-01-10T13:28:26;37.85;;;7.78;;
52674;SDS011;38569;52.722;6.440;2023-01-10T13:30:54;27.52;;;6.55;;
52674;SDS011;38569;52.722;6.440;2023-01-10T13:33:26;29.13;;;5.70;;
52674;SDS011;38569;52.722;6.440;2023-01-10T13:39:00;38.97;;;6.45;;
52674;SDS011;38569;52.722;6.440;2023-01-10T13:50:49;28.17;;;5.50;;
52674;SDS011;38569;52.722;6.440;2023-01-10T14:01:22;32.45;;;5.72;;
52674;SDS011;38569;52.722;6.440;2023-01-10T14:04:19;20.85;;;6.40;;
52674;SDS011;38569;52.722;6.440;2023-01-10T14:06:51;22.17;;;5.03;;
52674;SDS011;38569;52.722;6.440;2023-01-10T14:11:48;28.35;;;6.03;;
52674;SDS011;38569;52.722;6.440;2023-01-10T14:14:20;39.05;;;6.72;;
52674;SDS011;38569;52.722;6.440;2023-01-10T14:20:00;24.17;;;5.22;;
52674;SDS011;38569;52.722;6.440;2023-01-10T14:22:39;33.40;;;7.28;;
52674;SDS011;38569;52.722;6.440;2023-01-10T14:25:19;27.95;;;5.80;;
52674;SDS011;38569;52.722;6.440;2023-01-10T14:27:46;22.52;;;5.28;;
52674;SDS011;38569;52.722;6.440;2023-01-10T14:30:20;31.60;;;8.73;;
52674;SDS011;38569;52.722;6.440;2023-01-10T14:32:52;32.17;;;6.07;;
52674;SDS011;38569;52.722;6.440;2023-01-10T14:35:21;19.05;;;4.40;;
52674;SDS011;38569;52.722;6.440;2023-01-10T14:42:50;26.98;;;5.05;;
52674;SDS011;38569;52.722;6.440;2023-01-10T14:47:51;32.40;;;6.57;;
52674;SDS011;38569;52.722;6.440;2023-01-10T14:50:25;22.50;;;4.95;;
52674;SDS011;38569;52.722;6.440;2023-01-10T14:52:54;27.55;;;6.28;;
52674;SDS011;38569;52.722;6.440;2023-01-10T14:55:20;27.90;;;6.03;;
52674;SDS011;38569;52.722;6.440;2023-01-10T14:57:53;24.45;;;6.43;;
52674;SDS011;38569;52.722;6.440;2023-01-10T15:00:23;24.17;;;5.32;;
52674;SDS011;38569;52.722;6.440;2023-01-10T15:02:54;28.33;;;6.82;;
52674;SDS011;38569;52.722;6.440;2023-01-10T15:05:23;28.45;;;5.70;;
52674;SDS011;38569;52.722;6.440;2023-01-10T15:07:54;19.55;;;5.00;;
52674;SDS011;38569;52.722;6.440;2023-01-10T15:10:39;22.73;;;5.38;;
52674;SDS011;38569;52.722;6.440;2023-01-10T15:13:06;93.88;;;11.98;;
52674;SDS011;38569;52.722;6.440;2023-01-10T15:15:37;33.10;;;6.05;;
52674;SDS011;38569;52.722;6.440;2023-01-10T15:20:48;38.67;;;7.07;;
52674;SDS011;38569;52.722;6.440;2023-01-10T15:23:14;23.73;;;4.97;;
52674;SDS011;38569;52.722;6.440;2023-01-10T15:25:39;37.80;;;5.88;;
52674;SDS011;38569;52.722;6.440;2023-01-10T15:28:14;25.23;;;6.13;;
52674;SDS011;38569;52.722;6.440;2023-01-10T15:30:41;35.50;;;6.60;;
52674;SDS011;38569;52.722;6.440;2023-01-10T15:33:11;26.35;;;5.20;;
52674;SDS011;38569;52.722;6.440;2023-01-10T15:35:40;25.52;;;5.30;;
52674;SDS011;38569;52.722;6.440;2023-01-10T15:38:11;27.95;;;6.38;;
52674;SDS011;38569;52.722;6.440;2023-01-10T15:40:40;19.10;;;5.13;;
52674;SDS011;38569;52.722;6.440;2023-01-10T15:43:10;36.42;;;8.00;;
52674;SDS011;38569;52.722;6.440;2023-01-10T15:45:37;19.58;;;4.97;;
52674;SDS011;38569;52.722;6.440;2023-01-10T15:48:04;26.77;;;5.63;;
52674;SDS011;38569;52.722;6.440;2023-01-10T15:56:33;30.10;;;6.07;;
52674;SDS011;38569;52.722;6.440;2023-01-10T15:59:02;24.13;;;4.65;;
52674;SDS011;38569;52.722;6.440;2023-01-10T16:01:30;29.38;;;5.85;;
52674;SDS011;38569;52.722;6.440;2023-01-10T16:04:02;25.05;;;5.70;;
52674;SDS011;38569;52.722;6.440;2023-01-10T16:06:30;21.98;;;4.93;;
52674;SDS011;38569;52.722;6.440;2023-01-10T16:09:03;32.08;;;6.95;;
52674;SDS011;38569;52.722;6.440;2023-01-10T16:14:41;23.92;;;5.00;;
52674;SDS011;38569;52.722;6.440;2023-01-10T16:17:07;38.35;;;8.20;;
52674;SDS011;38569;52.722;6.440;2023-01-10T16:19:34;28.30;;;5.80;;
52674;SDS011;38569;52.722;6.440;2023-01-10T16:21:59;27.85;;;5.97;;
52674;SDS011;38569;52.722;6.440;2023-01-10T16:24:26;25.15;;;5.78;;
52674;SDS011;38569;52.722;6.440;2023-01-10T16:26:54;29.02;;;5.85;;
52674;SDS011;38569;52.722;6.440;2023-01-10T16:29:20;33.20;;;8.88;;
52674;SDS011;38569;52.722;6.440;2023-01-10T16:31:50;28.80;;;5.25;;
52674;SDS011;38569;52.722;6.440;2023-01-10T16:34:17;44.13;;;9.13;;
52674;SDS011;38569;52.722;6.440;2023-01-10T16:36:43;27.33;;;6.70;;
52674;SDS011;38569;52.722;6.440;2023-01-10T16:41:42;32.35;;;8.02;;
52674;SDS011;38569;52.722;6.440;2023-01-10T16:44:27;36.63;;;6.18;;
52674;SDS011;38569;52.722;6.440;2023-01-10T16:46:53;24.20;;;5.38;;
52674;SDS011;38569;52.722;6.440;2023-01-10T16:49:19;33.40;;;5.50;;
52674;SDS011;38569;52.722;6.440;2023-01-10T16:51:45;22.52;;;5.47;;
52674;SDS011;38569;52.722;6.440;2023-01-10T16:54:15;19.08;;;5.70;;